Terminal Aerodrome Forecast
Issued by NWS

Home | Current Version | Previous Version | Text Only | Print | Product List | Glossary On
Versions: 1 2 3 4 5 6 7 8 9 10 11 12 13 14 15 16 17 18 19 20 21
000
FTUS45 KTWC 300500
TAFOLS
TAF
KOLS 300538Z 3006/3106 15007KT P6SM SCT060 OVC080
      TEMPO 3006/3009 -SHRA BKN050 OVC070
     FM300900 15006KT P6SM -SHRA SCT035 OVC060
     FM301500 16009KT P6SM -SHRA SCT025 OVC040
     FM310200 15005KT P6SM -SHRA SCT020 OVC030=

USA.gov is the U.S. government's official web portal to all federal, state and local government web resources and services.